createdAt,value
2018-07-11T00:01:46.251Z,3.05
2018-07-11T00:04:15.527Z,2.65
2018-07-11T00:06:44.701Z,2.70
2018-07-11T00:09:14.489Z,2.62
2018-07-11T00:11:43.806Z,2.20
2018-07-11T00:14:13.279Z,2.45
2018-07-11T00:16:47.852Z,3.00
2018-07-11T00:19:17.060Z,2.77
2018-07-11T00:21:46.640Z,3.15
2018-07-11T00:24:15.879Z,2.30
2018-07-11T00:26:45.342Z,2.50
2018-07-11T00:29:14.603Z,2.50
2018-07-11T00:31:44.692Z,2.58
2018-07-11T00:34:13.954Z,2.27
2018-07-11T00:36:43.285Z,2.62
2018-07-11T00:39:12.606Z,2.87
2018-07-11T00:41:42.012Z,2.67
2018-07-11T00:44:11.277Z,3.10
2018-07-11T00:46:40.870Z,3.08
2018-07-11T00:49:10.067Z,2.90
2018-07-11T00:51:39.549Z,2.80
2018-07-11T00:54:09.906Z,2.60
2018-07-11T00:56:40.268Z,3.27
2018-07-11T00:59:11.991Z,2.90
2018-07-11T01:01:43.010Z,3.00
2018-07-11T01:04:18.336Z,2.75
2018-07-11T01:06:47.804Z,2.80
2018-07-11T01:09:17.113Z,2.80
2018-07-11T01:11:46.522Z,2.85
2018-07-11T01:14:16.265Z,2.77
2018-07-11T01:16:45.522Z,3.87
2018-07-11T01:19:17.744Z,2.47
2018-07-11T01:21:52.839Z,3.20
2018-07-11T01:24:22.040Z,2.80
2018-07-11T01:26:51.413Z,3.55
2018-07-11T01:29:20.587Z,2.72
2018-07-11T01:31:50.908Z,4.40
2018-07-11T01:34:21.250Z,3.15
2018-07-11T01:36:51.365Z,3.80
2018-07-11T01:39:20.692Z,2.90
2018-07-11T01:41:54.840Z,3.50
2018-07-11T01:44:24.523Z,2.80
2018-07-11T01:46:53.892Z,3.17
2018-07-11T01:49:23.535Z,3.45
2018-07-11T01:52:03.898Z,3.20
2018-07-11T01:54:33.148Z,3.22
2018-07-11T01:57:02.411Z,3.60
2018-07-11T01:59:35.226Z,4.00
2018-07-11T02:02:05.369Z,3.40
2018-07-11T02:04:36.064Z,4.30
2018-07-11T02:07:05.401Z,3.47
2018-07-11T02:09:34.931Z,3.22
2018-07-11T02:12:04.807Z,3.67
2018-07-11T02:14:35.089Z,3.83
2018-07-11T02:17:04.849Z,2.62
2018-07-11T02:19:36.735Z,3.02
2018-07-11T02:22:06.157Z,3.20
2018-07-11T02:24:35.351Z,2.70
2018-07-11T02:27:04.646Z,3.30
2018-07-11T02:29:33.925Z,3.35
2018-07-11T02:32:07.236Z,3.90
2018-07-11T02:34:44.662Z,3.05
2018-07-11T02:37:13.925Z,3.25
2018-07-11T02:42:54.883Z,3.77
2018-07-11T02:45:25.131Z,3.42
2018-07-11T02:48:06.796Z,3.62
2018-07-11T02:50:50.245Z,4.62
2018-07-11T02:53:23.296Z,3.77
2018-07-11T02:55:53.862Z,3.60
2018-07-11T02:58:23.184Z,4.00
2018-07-11T03:00:52.550Z,4.25
2018-07-11T03:03:22.069Z,3.77
2018-07-11T03:05:52.169Z,4.17
2018-07-11T03:08:21.458Z,3.92
2018-07-11T03:10:51.609Z,4.67
2018-07-11T03:13:22.158Z,4.72
2018-07-11T03:15:52.665Z,4.65
2018-07-11T03:18:22.599Z,4.40
2018-07-11T03:20:52.483Z,4.67
2018-07-11T03:23:21.845Z,4.55
2018-07-11T03:25:51.384Z,4.62
2018-07-11T03:28:20.816Z,4.45
2018-07-11T03:30:50.265Z,4.90
2018-07-11T03:33:19.971Z,5.30
2018-07-11T03:35:50.792Z,4.35
2018-07-11T03:38:20.724Z,5.50
2018-07-11T03:40:58.682Z,4.62
2018-07-11T03:43:27.910Z,4.80
2018-07-11T03:45:58.194Z,4.97
2018-07-11T03:48:28.278Z,4.60
2018-07-11T03:50:57.851Z,6.22
2018-07-11T03:53:27.235Z,5.20
2018-07-11T03:55:57.110Z,7.90
2018-07-11T03:58:27.241Z,5.25
2018-07-11T04:00:58.277Z,5.75
2018-07-11T04:03:27.622Z,5.70
2018-07-11T04:05:58.835Z,5.33
2018-07-11T04:08:29.026Z,4.95
2018-07-11T04:11:00.078Z,5.05
2018-07-11T04:13:30.254Z,5.50
2018-07-11T04:16:00.222Z,5.30
2018-07-11T04:18:30.417Z,4.92
2018-07-11T04:21:01.872Z,5.00
2018-07-11T04:23:31.646Z,5.67
2018-07-11T04:26:01.985Z,5.25
2018-07-11T04:28:31.234Z,5.28
2018-07-11T04:31:01.920Z,5.20
2018-07-11T04:33:31.626Z,5.20
2018-07-11T04:36:00.872Z,5.55
2018-07-11T04:38:30.867Z,5.08
2018-07-11T04:40:59.779Z,6.12
2018-07-11T04:43:28.958Z,5.00
2018-07-11T04:45:59.635Z,5.00
2018-07-11T04:48:29.858Z,6.10
2018-07-11T04:51:00.447Z,5.72
2018-07-11T04:53:29.711Z,5.47
2018-07-11T04:56:03.374Z,5.92
2018-07-11T04:58:33.162Z,4.83
2018-07-11T05:01:02.873Z,5.85
2018-07-11T05:03:32.115Z,5.95
2018-07-11T05:06:01.416Z,5.30
2018-07-11T05:08:30.919Z,5.87
2018-07-11T05:11:00.259Z,6.53
2018-07-11T05:13:30.379Z,5.60
2018-07-11T05:16:00.403Z,5.25
2018-07-11T05:18:30.312Z,5.00
2018-07-11T05:20:59.624Z,4.85
2018-07-11T05:23:29.144Z,5.35
2018-07-11T05:25:59.240Z,6.20
2018-07-11T05:28:28.995Z,6.10
2018-07-11T05:30:58.636Z,5.90
2018-07-11T05:33:28.350Z,5.60
2018-07-11T05:35:57.542Z,6.25
2018-07-11T05:38:31.239Z,6.20
2018-07-11T05:41:01.252Z,5.45
2018-07-11T05:43:33.296Z,6.42
2018-07-11T05:46:02.825Z,6.15
2018-07-11T05:48:32.493Z,6.22
2018-07-11T05:51:02.218Z,6.35
2018-07-11T05:53:31.548Z,5.83
2018-07-11T05:56:00.766Z,5.83
2018-07-11T05:58:33.713Z,7.03
2018-07-11T06:01:05.552Z,6.17
2018-07-11T06:03:34.741Z,5.80
2018-07-11T06:06:04.032Z,6.40
2018-07-11T06:08:32.898Z,5.80
2018-07-11T06:11:03.602Z,7.28
2018-07-11T06:13:33.008Z,5.90
2018-07-11T06:16:02.275Z,6.22
2018-07-11T06:18:31.490Z,6.95
2018-07-11T06:21:02.465Z,6.00
2018-07-11T06:23:35.885Z,7.28
2018-07-11T06:26:06.951Z,8.10
2018-07-11T06:28:37.751Z,6.65
2018-07-11T06:31:08.558Z,7.33
2018-07-11T06:33:37.849Z,7.25
2018-07-11T06:36:07.466Z,6.70
2018-07-11T06:38:38.972Z,5.90
2018-07-11T06:41:08.420Z,6.72
2018-07-11T06:43:37.879Z,7.28
2018-07-11T06:46:07.998Z,8.88
2018-07-11T06:48:39.506Z,6.47
2018-07-11T06:51:11.610Z,7.90
2018-07-11T06:53:41.161Z,8.93
2018-07-11T06:56:10.385Z,8.53
2018-07-11T06:58:42.941Z,9.70
2018-07-11T07:01:16.899Z,11.20
2018-07-11T07:03:47.367Z,9.45
2018-07-11T07:06:16.630Z,6.85
2018-07-11T07:08:45.967Z,7.42
2018-07-11T07:11:16.379Z,8.10
2018-07-11T07:13:46.545Z,7.10
2018-07-11T07:16:15.980Z,7.97
2018-07-11T07:18:45.400Z,7.08
2018-07-11T07:21:18.605Z,8.58
2018-07-11T07:23:47.860Z,7.80
2018-07-11T07:26:17.140Z,7.85
2018-07-11T07:28:46.535Z,8.30
2018-07-11T07:31:15.970Z,8.63
2018-07-11T07:33:45.210Z,9.28
2018-07-11T07:36:15.054Z,8.90
2018-07-11T07:38:45.441Z,9.45
2018-07-11T07:41:14.863Z,7.97
2018-07-11T07:43:44.658Z,8.55
2018-07-11T07:46:14.250Z,9.23
2018-07-11T07:48:43.600Z,9.55
2018-07-11T07:51:13.033Z,10.85
2018-07-11T07:53:42.402Z,10.18
2018-07-11T07:56:13.663Z,11.68
2018-07-11T07:58:43.028Z,11.00
2018-07-11T08:01:13.218Z,10.88
2018-07-11T08:03:42.466Z,11.85
2018-07-11T08:06:12.260Z,12.73
2018-07-11T08:08:43.226Z,11.60
2018-07-11T08:11:13.767Z,10.55
2018-07-11T08:13:43.117Z,10.65
2018-07-11T08:16:12.326Z,11.50
2018-07-11T08:18:41.569Z,12.10
2018-07-11T08:21:10.966Z,12.45
2018-07-11T08:23:51.256Z,11.65
2018-07-11T08:26:31.581Z,12.10
2018-07-11T08:32:18.679Z,10.18
2018-07-11T08:34:59.762Z,8.70
2018-07-11T08:39:48.095Z,9.60
2018-07-11T08:42:30.376Z,8.80
2018-07-11T08:47:16.202Z,8.98
2018-07-11T08:50:56.284Z,8.18
2018-07-11T08:53:50.250Z,6.53
2018-07-11T08:57:33.779Z,7.15
2018-07-11T09:00:29.203Z,8.25
2018-07-11T09:03:13.007Z,7.25
2018-07-11T09:07:55.876Z,7.20
2018-07-11T09:10:40.031Z,6.53
2018-07-11T09:15:27.140Z,7.47
2018-07-11T09:18:10.779Z,6.85
2018-07-11T09:20:50.138Z,6.90
2018-07-11T09:24:32.927Z,7.30
2018-07-11T09:27:02.138Z,6.15
2018-07-11T09:29:31.076Z,6.67
2018-07-11T09:32:00.602Z,7.25
2018-07-11T09:34:29.829Z,6.83
2018-07-11T09:36:59.292Z,7.87
2018-07-11T09:39:28.536Z,7.47
2018-07-11T09:41:57.818Z,6.65
2018-07-11T09:44:27.117Z,7.33
2018-07-11T09:46:56.831Z,7.15
2018-07-11T09:49:27.294Z,7.20
2018-07-11T09:51:56.933Z,6.80
2018-07-11T09:54:26.169Z,8.18
2018-07-11T09:56:55.452Z,6.67
2018-07-11T09:59:25.155Z,8.08
2018-07-11T10:01:54.952Z,6.35
2018-07-11T10:04:27.407Z,7.65
2018-07-11T10:06:57.242Z,6.47
2018-07-11T10:09:31.465Z,7.70
2018-07-11T10:12:01.647Z,6.67
2018-07-11T10:14:33.805Z,8.30
2018-07-11T10:17:03.685Z,7.70
2018-07-11T10:19:33.830Z,7.67
2018-07-11T10:22:03.304Z,7.95
2018-07-11T10:24:32.545Z,8.50
2018-07-11T10:27:02.117Z,7.03
2018-07-11T10:29:31.835Z,7.17
2018-07-11T10:32:01.915Z,7.60
2018-07-11T10:34:31.098Z,6.95
2018-07-11T10:37:01.407Z,7.87
2018-07-11T10:39:30.689Z,7.20
2018-07-11T10:42:03.210Z,7.25
2018-07-11T10:44:33.402Z,8.50
2018-07-11T10:47:13.320Z,7.30
2018-07-11T10:49:44.424Z,6.12
2018-07-11T10:52:14.260Z,7.93
2018-07-11T10:54:43.479Z,7.90
2018-07-11T10:57:13.307Z,7.17
2018-07-11T10:59:42.588Z,7.42
2018-07-11T11:02:18.142Z,6.08
2018-07-11T11:04:48.367Z,6.53
2018-07-11T11:07:18.581Z,6.30
2018-07-11T11:09:47.827Z,6.60
2018-07-11T11:12:18.486Z,7.40
2018-07-11T11:14:47.793Z,5.72
2018-07-11T11:17:19.982Z,5.20
2018-07-11T11:19:49.686Z,4.05
2018-07-11T11:22:18.967Z,3.70
2018-07-11T11:24:48.509Z,3.70
2018-07-11T11:27:18.353Z,4.47
2018-07-11T11:29:52.287Z,4.53
2018-07-11T11:32:26.717Z,4.40
2018-07-11T11:34:55.979Z,5.05
2018-07-11T11:37:25.253Z,4.22
2018-07-11T11:39:54.652Z,4.45
2018-07-11T11:42:28.223Z,4.30
2018-07-11T11:44:59.318Z,4.08
2018-07-11T11:47:28.976Z,3.80
2018-07-11T11:49:58.691Z,4.87
2018-07-11T11:52:29.879Z,4.17
2018-07-11T11:54:59.825Z,4.20
2018-07-11T11:57:29.593Z,4.53
2018-07-11T12:00:01.005Z,4.10
2018-07-11T12:02:32.424Z,4.43
2018-07-11T12:05:09.949Z,4.47
2018-07-11T12:07:41.704Z,3.80
2018-07-11T12:10:11.076Z,4.80
2018-07-11T12:12:40.437Z,4.22
2018-07-11T12:15:11.663Z,5.13
2018-07-11T12:17:41.200Z,4.00
2018-07-11T12:20:18.423Z,4.80
2018-07-11T12:22:48.337Z,5.35
2018-07-11T12:25:23.847Z,5.08
2018-07-11T12:27:54.817Z,4.40
2018-07-11T12:30:28.216Z,4.20
2018-07-11T12:32:58.502Z,5.50
2018-07-11T12:35:29.736Z,4.30
2018-07-11T12:38:02.810Z,4.42
2018-07-11T12:40:33.172Z,5.20
2018-07-11T12:43:02.605Z,7.40
2018-07-11T12:45:32.240Z,4.85
2018-07-11T12:48:09.365Z,4.30
2018-07-11T12:50:39.850Z,3.90
2018-07-11T12:53:09.824Z,3.95
2018-07-11T12:55:39.129Z,3.58
2018-07-11T12:58:09.593Z,4.42
2018-07-11T13:00:39.196Z,3.55
2018-07-11T13:03:08.546Z,3.67
2018-07-11T13:05:37.790Z,3.20
2018-07-11T13:08:08.959Z,3.60
2018-07-11T13:10:38.855Z,4.50
2018-07-11T13:13:08.109Z,3.80
2018-07-11T13:15:38.114Z,3.70
2018-07-11T13:18:07.426Z,3.57
2018-07-11T13:20:36.837Z,3.47
2018-07-11T13:23:06.326Z,3.10
2018-07-11T13:25:37.115Z,3.07
2018-07-11T13:28:06.380Z,3.13
2018-07-11T13:30:36.708Z,3.00
2018-07-11T13:33:12.686Z,3.40
2018-07-11T13:35:43.485Z,3.80
2018-07-11T13:38:14.284Z,3.60
2018-07-11T13:40:44.679Z,3.03
2018-07-11T13:43:15.308Z,3.53
2018-07-11T13:45:46.669Z,3.10
2018-07-11T13:48:18.652Z,3.30
2018-07-11T13:50:51.208Z,2.50
2018-07-11T13:53:20.612Z,3.10
2018-07-11T13:55:58.796Z,2.90
2018-07-11T13:58:31.271Z,3.80
2018-07-11T14:01:02.257Z,3.50
2018-07-11T14:03:32.489Z,2.73
2018-07-11T14:06:09.179Z,2.87
2018-07-11T14:08:42.600Z,3.40
2018-07-11T14:11:12.375Z,2.90
2018-07-11T14:13:43.533Z,2.00
2018-07-11T14:16:13.556Z,2.30
2018-07-11T14:18:43.290Z,3.07
2018-07-11T14:21:12.497Z,3.27
2018-07-11T14:23:48.970Z,2.17
2018-07-11T14:26:22.510Z,2.50
2018-07-11T14:28:53.990Z,2.53
2018-07-11T14:31:39.041Z,2.50
2018-07-11T14:34:09.692Z,2.73
2018-07-11T14:36:40.931Z,1.80
2018-07-11T14:39:10.454Z,2.20
2018-07-11T14:41:39.994Z,2.13
2018-07-11T14:44:09.667Z,2.20
2018-07-11T14:46:38.958Z,2.30
2018-07-11T14:49:09.294Z,2.80
2018-07-11T14:51:39.995Z,3.13
2018-07-11T14:54:11.037Z,2.80
2018-07-11T14:56:41.809Z,2.37
2018-07-11T14:59:14.377Z,2.63
2018-07-11T15:01:43.774Z,2.20
2018-07-11T15:04:14.910Z,2.30
2018-07-11T15:06:45.638Z,1.77
2018-07-11T15:09:20.920Z,2.87
2018-07-11T15:11:53.172Z,2.27
2018-07-11T15:14:25.028Z,2.53
2018-07-11T15:16:56.305Z,2.03
2018-07-11T15:19:25.910Z,2.60
2018-07-11T15:21:55.364Z,2.47
2018-07-11T15:24:26.647Z,2.20
2018-07-11T15:27:01.247Z,2.03
2018-07-11T15:29:32.208Z,2.30
2018-07-11T15:32:05.181Z,2.00
2018-07-11T15:34:34.569Z,2.17
2018-07-11T15:37:04.070Z,1.70
2018-07-11T15:39:35.406Z,2.00
2018-07-11T15:42:07.124Z,1.60
2018-07-11T15:44:36.525Z,1.77
2018-07-11T15:47:10.113Z,1.90
2018-07-11T15:49:46.983Z,1.60
2018-07-11T15:52:18.600Z,2.50
2018-07-11T15:54:49.861Z,1.70
2018-07-11T15:57:28.867Z,1.80
2018-07-11T16:00:11.698Z,1.50
2018-07-11T16:02:45.976Z,1.70
2018-07-11T16:05:23.197Z,1.93
2018-07-11T16:07:58.595Z,1.70
2018-07-11T16:10:30.928Z,1.40
2018-07-11T16:13:02.177Z,1.67
2018-07-11T16:15:31.568Z,1.70
2018-07-11T16:18:00.882Z,1.70
2018-07-11T16:20:31.357Z,1.93
2018-07-11T16:23:01.299Z,1.30
2018-07-11T16:25:30.716Z,1.80
2018-07-11T16:28:00.394Z,1.53
2018-07-11T16:30:30.884Z,1.40
2018-07-11T16:33:01.945Z,1.60
2018-07-11T16:35:31.273Z,1.20
2018-07-11T16:38:01.321Z,1.43
2018-07-11T16:40:32.759Z,2.13
2018-07-11T16:43:02.832Z,2.17
2018-07-11T16:45:33.429Z,1.77
2018-07-11T16:48:02.929Z,1.50
2018-07-11T16:50:32.412Z,1.47
2018-07-11T16:53:01.777Z,1.50
2018-07-11T16:55:35.356Z,2.63
2018-07-11T16:58:05.025Z,2.00
2018-07-11T17:00:36.131Z,1.83
2018-07-11T17:03:09.250Z,2.00
2018-07-11T17:06:19.029Z,2.23
2018-07-11T17:08:52.146Z,1.80
2018-07-11T17:11:24.527Z,1.97
2018-07-11T17:13:59.119Z,1.90
2018-07-11T17:16:37.680Z,3.07
2018-07-11T17:19:11.022Z,1.80
2018-07-11T17:21:47.943Z,1.80
2018-07-11T17:24:19.074Z,1.87
2018-07-11T17:26:49.654Z,2.20
2018-07-11T17:29:26.016Z,1.77
2018-07-11T17:32:05.081Z,2.27
2018-07-11T17:34:36.685Z,1.83
2018-07-11T17:37:07.660Z,2.10
2018-07-11T17:39:49.076Z,1.60
2018-07-11T17:42:22.596Z,1.77
2018-07-11T17:45:16.621Z,1.37
2018-07-11T17:49:58.008Z,1.60
2018-07-11T17:52:28.976Z,1.47
2018-07-11T17:55:10.910Z,1.87
2018-07-11T17:57:52.539Z,1.63
2018-07-11T18:00:34.328Z,1.47
2018-07-11T18:03:39.073Z,2.30
2018-07-11T18:06:22.370Z,2.40
2018-07-11T18:08:58.627Z,3.70
2018-07-11T18:11:35.143Z,3.83
2018-07-11T18:14:04.755Z,3.00
2018-07-11T18:16:43.698Z,2.30
2018-07-11T18:19:24.529Z,2.37
2018-07-11T18:22:10.842Z,3.23
2018-07-11T18:26:56.935Z,2.60
2018-07-11T18:29:43.534Z,2.90
2018-07-11T18:32:53.824Z,2.60
2018-07-11T18:36:36.636Z,2.73
2018-07-11T18:39:17.433Z,2.70
2018-07-11T18:44:00.398Z,2.57
2018-07-11T18:46:50.268Z,2.40
2018-07-11T18:51:36.222Z,2.23
2018-07-11T18:54:13.595Z,2.40
2018-07-11T18:57:00.427Z,2.22
2018-07-11T18:59:46.383Z,2.65
2018-07-11T19:03:33.065Z,3.33
2018-07-11T19:07:15.024Z,2.70
2018-07-11T19:09:49.836Z,2.70
2018-07-11T19:12:36.081Z,2.70
2018-07-11T19:15:09.907Z,2.00
2018-07-11T19:17:56.605Z,2.10
2018-07-11T19:21:06.736Z,1.70
2018-07-11T19:23:46.238Z,2.45
2018-07-11T19:27:32.165Z,2.52
2018-07-11T19:30:13.340Z,2.55
2018-07-11T19:32:58.547Z,2.87
2018-07-11T19:37:46.341Z,2.50
2018-07-11T19:40:29.157Z,2.72
2018-07-11T19:43:11.256Z,3.25
2018-07-11T19:45:55.205Z,2.90
2018-07-11T19:48:36.026Z,2.58
2018-07-11T19:51:14.626Z,2.80
2018-07-11T19:56:00.728Z,2.45
2018-07-11T19:58:31.332Z,2.90
2018-07-11T20:01:01.305Z,3.20
2018-07-11T20:03:30.886Z,3.25
2018-07-11T20:06:00.829Z,3.22
2018-07-11T20:08:32.724Z,3.02
2018-07-11T20:11:02.491Z,4.05
2018-07-11T20:13:31.898Z,3.02
2018-07-11T20:16:01.959Z,3.40
2018-07-11T20:18:32.316Z,3.00
2018-07-11T20:21:01.853Z,3.33
2018-07-11T20:23:31.842Z,3.30
2018-07-11T20:26:01.861Z,3.25
2018-07-11T20:28:37.490Z,3.30
2018-07-11T20:31:07.161Z,3.35
2018-07-11T20:33:38.427Z,3.30
2018-07-11T20:36:12.071Z,3.20
2018-07-11T20:38:43.412Z,2.90
2018-07-11T20:41:14.548Z,2.80
2018-07-11T20:43:43.893Z,3.58
2018-07-11T20:46:13.235Z,3.85
2018-07-11T20:48:44.692Z,3.10
2018-07-11T20:51:14.468Z,3.60
2018-07-11T20:53:44.387Z,3.22
2018-07-11T20:56:14.680Z,3.33
2018-07-11T20:58:55.666Z,3.50
2018-07-11T21:01:36.540Z,3.05
2018-07-11T21:06:38.188Z,2.85
2018-07-11T21:10:19.813Z,3.05
2018-07-11T21:15:42.984Z,3.60
2018-07-11T21:19:15.264Z,3.50
2018-07-11T21:21:45.078Z,2.85
2018-07-11T21:24:15.245Z,3.52
2018-07-11T21:26:50.880Z,3.80
2018-07-11T21:29:21.033Z,2.95
2018-07-11T21:31:50.943Z,4.92
2018-07-11T21:34:21.039Z,3.62
2018-07-11T21:36:50.966Z,3.20
2018-07-11T21:39:20.171Z,2.40
2018-07-11T21:41:49.451Z,3.10
2018-07-11T21:44:18.796Z,3.40
2018-07-11T21:46:48.725Z,3.40
2018-07-11T21:49:23.236Z,3.27
2018-07-11T21:51:52.938Z,3.75
2018-07-11T21:54:24.005Z,3.50
2018-07-11T21:56:53.237Z,3.75
2018-07-11T21:59:24.190Z,3.62
2018-07-11T22:01:53.506Z,2.75
2018-07-11T22:04:26.756Z,3.22
2018-07-11T22:06:56.613Z,3.20
2018-07-11T22:09:28.820Z,3.10
2018-07-11T22:11:58.486Z,3.35
2018-07-11T22:14:27.764Z,3.20
2018-07-11T22:16:57.826Z,3.60
2018-07-11T22:19:34.784Z,2.92
2018-07-11T22:22:02.763Z,2.92
2018-07-11T22:24:30.822Z,3.83
2018-07-11T22:26:58.800Z,3.70
2018-07-11T22:29:27.399Z,3.22
2018-07-11T22:31:55.887Z,3.80
2018-07-11T22:34:23.855Z,3.52
2018-07-11T22:36:51.937Z,3.30
2018-07-11T22:39:20.537Z,3.52
2018-07-11T22:41:48.411Z,2.80
2018-07-11T22:44:16.393Z,3.45
2018-07-11T22:46:44.628Z,3.95
2018-07-11T22:49:12.625Z,3.40
2018-07-11T22:51:40.864Z,3.70
2018-07-11T22:54:08.832Z,3.47
2018-07-11T22:56:36.787Z,4.20
2018-07-11T22:59:05.134Z,3.10
2018-07-11T23:01:34.226Z,3.50
2018-07-11T23:04:02.191Z,3.17
2018-07-11T23:06:30.187Z,3.42
2018-07-11T23:08:58.155Z,4.10
2018-07-11T23:11:26.261Z,4.05
2018-07-11T23:13:54.225Z,4.30
2018-07-11T23:16:22.230Z,4.35
2018-07-11T23:18:50.487Z,4.22
2018-07-11T23:21:18.815Z,4.65
2018-07-11T23:23:47.207Z,4.53
2018-07-11T23:26:15.158Z,4.20
2018-07-11T23:28:43.439Z,4.62
2018-07-11T23:31:11.414Z,3.90
2018-07-11T23:33:39.394Z,4.33
2018-07-11T23:36:07.384Z,4.75
2018-07-11T23:38:35.387Z,4.03
2018-07-11T23:41:06.966Z,4.03
2018-07-11T23:43:35.007Z,4.80
2018-07-11T23:46:03.262Z,3.72
2018-07-11T23:48:31.240Z,4.15
2018-07-11T23:50:59.342Z,4.12
2018-07-11T23:53:27.341Z,4.37
2018-07-11T23:55:55.353Z,3.65
2018-07-11T23:58:23.338Z,3.80
